Portada
METAR-TAF:

METAR-TAF

Aeropuertos :

Waterford, Irlanda

latitud: 52-11-14N, longitud: 7-05-13W, altitud: 36 m

Observación

El informe se hizo hace 32 minutos, a las 13:00 UTC
Viento 14 kt del norte-noroeste con ráfagas de 25 kt, variando entre oeste y noreste
Temperatura 14°C
Humedad 67%
Presión 1010 hPa
Visibilidad 10 km o más
Cielo nuboso a una altura de 3500 ft
Cielo nuboso a una altura de 4100 ft

METAR: EIWF 261300Z 34014G25KT 280V040 9999 BKN035 BKN041 14/08 Q1010

Hora: 14:32 (13:32 UTC)

Pronóstico

El informe se hizo hace 2 horas y 32 minutos, a las 11:00 UTC
Pronóstico válido del 26 a las 12 UTC al 26 a las 21 UTC
Viento 16 kt del norte-noroeste
Visibilidad 10 km o más
Nubes dispersas a una altura de 3000 ft
Temporalmente
del 26 a las 12 UTC al 26 a las 17 UTC
Viento 18 kt del norte-noroeste con ráfagas de 28 kt

TAF: EIWF 261100Z 2612/2621 34016KT 9999 SCT030 TEMPO 2612/2617 33018G28KT

Observaciones y pronósticos meteorológicos de más de 4000 aeropuertos (mensajes METAR y TAF).

Los puntos amarillos y rojos representan las estaciones disponibles.

Ponga el ratón en el punto deseado para ver el nombre de la estación.

Haga clic para ver las observaciones y los pronósticos meteorológicos.

Para cambiar el mapa : haga clic en los botones verdes con una cruz de color negro para hacer un zoom, en el botón verde con un guión para alejar o en las flechas verdes para mapas adyacentes.


METAR-TAF: